Time,TemperatureF,DewpointF,PressureIn,WindDirection,WindDirectionDegrees,WindSpeedMPH,WindSpeedGustMPH,Humidity,HourlyPrecipIn,Conditions,Clouds,dailyrainin,SolarRadiationWatts/m^2,SoftwareType,DateUTC
2014-04-20 00:01:00,47.0,35.0,-100.00,North,2,7.0,9.0,63,0.00,,,0.00,3.000000,,2014-04-20 07:01:00,
2014-04-20 00:11:00,47.0,35.0,-100.00,North,2,7.0,9.0,63,0.00,,,0.00,3.000000,,2014-04-20 07:11:00,
2014-04-20 00:42:00,49.0,26.0,-100.00,North,2,8.0,9.0,41,0.00,,,0.00,2.000000,,2014-04-20 07:42:00,
2014-04-20 00:52:00,49.0,26.0,-100.00,North,2,8.0,9.0,41,0.00,,,0.00,2.000000,,2014-04-20 07:52:00,
2014-04-20 01:02:00,49.0,26.0,-100.00,North,2,8.0,9.0,41,0.00,,,0.00,2.000000,,2014-04-20 08:02:00,
2014-04-20 01:43:00,48.0,27.0,-100.00,North,2,6.0,9.0,43,0.00,,,0.00,3.000000,,2014-04-20 08:43:00,
2014-04-20 01:52:00,48.0,27.0,-100.00,North,2,6.0,9.0,43,0.00,,,0.00,3.000000,,2014-04-20 08:52:00,
2014-04-20 02:01:00,48.0,27.0,-100.00,North,2,6.0,9.0,43,0.00,,,0.00,3.000000,,2014-04-20 09:01:00,
2014-04-20 02:11:00,48.0,27.0,-100.00,North,2,6.0,9.0,43,0.00,,,0.00,3.000000,,2014-04-20 09:11:00,
2014-04-20 02:43:00,47.0,36.0,-100.00,North,2,3.0,7.0,65,0.00,,,0.00,3.000000,,2014-04-20 09:43:00,
2014-04-20 02:54:00,47.0,36.0,-100.00,North,2,3.0,7.0,65,0.00,,,0.00,3.000000,,2014-04-20 09:54:00,
2014-04-20 03:03:00,47.0,36.0,-100.00,North,2,3.0,7.0,65,0.00,,,0.00,3.000000,,2014-04-20 10:03:00,
2014-04-20 03:13:00,47.0,36.0,-100.00,North,2,3.0,7.0,65,0.00,,,0.00,3.000000,,2014-04-20 10:13:00,
2014-04-20 03:43:00,45.0,35.0,-100.00,North,-999,0.0,5.0,68,0.00,,,0.00,3.000000,,2014-04-20 10:43:00,
2014-04-20 03:53:00,45.0,35.0,-100.00,North,-999,0.0,5.0,68,0.00,,,0.00,3.000000,,2014-04-20 10:53:00,
2014-04-20 04:02:00,45.0,35.0,-100.00,North,-999,0.0,5.0,68,0.00,,,0.00,3.000000,,2014-04-20 11:02:00,
2014-04-20 04:12:00,45.0,35.0,-100.00,North,-999,0.0,5.0,68,0.00,,,0.00,3.000000,,2014-04-20 11:12:00,
2014-04-20 04:43:00,45.0,38.0,-100.00,North,-999,0.0,4.0,76,0.00,,,0.00,3.000000,,2014-04-20 11:43:00,
2014-04-20 04:52:00,45.0,38.0,-100.00,North,-999,0.0,4.0,76,0.00,,,0.00,3.000000,,2014-04-20 11:52:00,
2014-04-20 05:12:00,45.0,38.0,-100.00,North,-999,0.0,4.0,76,0.00,,,0.00,3.000000,,2014-04-20 12:12:00,
2014-04-20 09:43:00,61.0,31.0,-100.00,North,1,9.0,12.0,32,-99.99,,,0.00,557.000000,,2014-04-20 16:43:00,
2014-04-20 09:53:00,61.0,31.0,-100.00,North,1,9.0,12.0,32,-99.99,,,0.00,557.000000,,2014-04-20 16:53:00,
2014-04-20 10:02:00,61.0,31.0,-100.00,North,1,9.0,12.0,32,-99.99,,,0.00,557.000000,,2014-04-20 17:02:00,
2014-04-20 10:12:00,61.0,31.0,-100.00,North,1,9.0,12.0,32,-99.99,,,0.00,557.000000,,2014-04-20 17:12:00,
2014-04-20 10:43:00,63.0,33.0,-100.00,North,1,10.0,15.0,33,0.00,,,0.00,783.000000,,2014-04-20 17:43:00,
2014-04-20 10:53:00,63.0,33.0,-100.00,North,1,10.0,15.0,33,0.00,,,0.00,783.000000,,2014-04-20 17:53:00,
2014-04-20 11:01:00,63.0,33.0,-100.00,North,1,10.0,15.0,33,0.00,,,0.00,783.000000,,2014-04-20 18:01:00,
2014-04-20 11:12:00,63.0,33.0,-100.00,North,1,10.0,15.0,33,0.00,,,0.00,783.000000,,2014-04-20 18:12:00,
2014-04-20 11:42:00,64.0,35.0,-100.00,North,0,12.0,17.0,34,0.00,,,0.00,961.000000,,2014-04-20 18:42:00,
2014-04-20 11:52:00,64.0,35.0,-100.00,North,0,12.0,17.0,34,0.00,,,0.00,961.000000,,2014-04-20 18:52:00,
2014-04-20 12:01:00,64.0,35.0,-100.00,North,0,12.0,17.0,34,0.00,,,0.00,961.000000,,2014-04-20 19:01:00,
2014-04-20 12:12:00,64.0,35.0,-100.00,North,0,12.0,17.0,34,0.00,,,0.00,961.000000,,2014-04-20 19:12:00,
2014-04-20 12:42:00,65.0,37.0,-100.00,North,0,11.0,18.0,36,0.00,,,0.00,1079.000000,,2014-04-20 19:42:00,
2014-04-20 12:52:00,65.0,37.0,-100.00,North,0,11.0,18.0,36,0.00,,,0.00,1079.000000,,2014-04-20 19:52:00,
2014-04-20 13:02:00,65.0,37.0,-100.00,North,0,11.0,18.0,36,0.00,,,0.00,1079.000000,,2014-04-20 20:02:00,
2014-04-20 13:12:00,65.0,37.0,-100.00,North,0,11.0,18.0,36,0.00,,,0.00,1079.000000,,2014-04-20 20:12:00,
2014-04-20 13:42:00,64.0,29.0,-100.00,North,0,13.0,19.0,27,0.00,,,0.00,1123.000000,,2014-04-20 20:42:00,
2014-04-20 13:52:00,64.0,29.0,-100.00,North,0,13.0,19.0,27,0.00,,,0.00,1123.000000,,2014-04-20 20:52:00,
2014-04-20 14:02:00,64.0,29.0,-100.00,North,0,13.0,19.0,27,0.00,,,0.00,1123.000000,,2014-04-20 21:02:00,
2014-04-20 14:12:00,64.0,29.0,-100.00,North,0,13.0,19.0,27,0.00,,,0.00,1123.000000,,2014-04-20 21:12:00,
2014-04-20 14:43:00,64.0,37.0,-100.00,North,0,13.0,20.0,36,0.00,,,0.00,1097.000000,,2014-04-20 21:43:00,
2014-04-20 14:53:00,64.0,37.0,-100.00,North,0,13.0,20.0,36,0.00,,,0.00,1097.000000,,2014-04-20 21:53:00,
2014-04-20 15:03:00,64.0,37.0,-100.00,North,0,13.0,20.0,36,0.00,,,0.00,1097.000000,,2014-04-20 22:03:00,
2014-04-20 15:13:00,64.0,37.0,-100.00,North,0,13.0,20.0,36,0.00,,,0.00,1097.000000,,2014-04-20 22:13:00,
2014-04-20 15:42:00,64.0,36.0,-100.00,North,0,13.0,20.0,35,0.00,,,0.00,996.000000,,2014-04-20 22:42:00,
2014-04-20 15:53:00,64.0,36.0,-100.00,North,0,13.0,20.0,35,0.00,,,0.00,996.000000,,2014-04-20 22:53:00,
2014-04-20 16:03:00,64.0,36.0,-100.00,North,0,13.0,20.0,35,0.00,,,0.00,996.000000,,2014-04-20 23:03:00,
2014-04-20 16:12:00,64.0,36.0,-100.00,North,0,13.0,20.0,35,0.00,,,0.00,996.000000,,2014-04-20 23:12:00,
2014-04-20 16:42:00,63.0,38.0,-100.00,North,0,12.0,18.0,39,0.00,,,0.00,829.000000,,2014-04-20 23:42:00,
2014-04-20 16:52:00,63.0,38.0,-100.00,North,0,12.0,18.0,39,0.00,,,0.00,829.000000,,2014-04-20 23:52:00,
2014-04-20 17:01:00,63.0,38.0,-100.00,North,0,12.0,18.0,39,0.00,,,0.00,829.000000,,2014-04-21 00:01:00,
2014-04-20 17:12:00,63.0,38.0,-100.00,North,0,12.0,18.0,39,0.00,,,0.00,829.000000,,2014-04-21 00:12:00,
2014-04-20 17:42:00,62.0,36.0,-100.00,North,0,11.0,17.0,38,0.00,,,0.00,616.000000,,2014-04-21 00:42:00,
2014-04-20 17:52:00,62.0,36.0,-100.00,North,0,11.0,17.0,38,0.00,,,0.00,616.000000,,2014-04-21 00:52:00,
2014-04-20 18:01:00,62.0,36.0,-100.00,North,0,11.0,17.0,38,0.00,,,0.00,616.000000,,2014-04-21 01:01:00,
2014-04-20 18:11:00,62.0,36.0,-100.00,North,0,11.0,17.0,38,0.00,,,0.00,616.000000,,2014-04-21 01:11:00,
2014-04-20 18:42:00,58.0,40.0,-100.00,North,1,11.0,16.0,52,0.00,,,0.00,369.000000,,2014-04-21 01:42:00,
2014-04-20 18:52:00,58.0,40.0,-100.00,North,1,11.0,16.0,52,0.00,,,0.00,369.000000,,2014-04-21 01:52:00,
2014-04-20 19:02:00,58.0,40.0,-100.00,North,1,11.0,16.0,52,0.00,,,0.00,369.000000,,2014-04-21 02:02:00,
2014-04-20 19:11:00,58.0,40.0,-100.00,North,1,11.0,16.0,52,0.00,,,0.00,369.000000,,2014-04-21 02:11:00,
2014-04-20 19:42:00,53.0,43.0,-100.00,North,1,9.0,14.0,70,0.00,,,0.00,106.000000,,2014-04-21 02:42:00,
2014-04-20 19:52:00,53.0,43.0,-100.00,North,1,9.0,14.0,70,0.00,,,0.00,106.000000,,2014-04-21 02:52:00,
2014-04-20 20:02:00,53.0,43.0,-100.00,North,1,9.0,14.0,70,0.00,,,0.00,106.000000,,2014-04-21 03:02:00,
2014-04-20 20:11:00,53.0,43.0,-100.00,North,1,9.0,14.0,70,0.00,,,0.00,106.000000,,2014-04-21 03:11:00,
2014-04-20 20:44:00,54.0,34.0,-100.00,North,1,10.0,14.0,47,0.00,,,0.00,5.000000,,2014-04-21 03:44:00,
2014-04-20 20:54:00,54.0,34.0,-100.00,North,1,10.0,14.0,47,0.00,,,0.00,5.000000,,2014-04-21 03:54:00,
2014-04-20 21:03:00,54.0,34.0,-100.00,North,1,10.0,14.0,47,0.00,,,0.00,5.000000,,2014-04-21 04:03:00,
2014-04-20 21:13:00,54.0,34.0,-100.00,North,1,10.0,14.0,47,0.00,,,0.00,5.000000,,2014-04-21 04:13:00,
2014-04-20 21:43:00,53.0,31.0,-100.00,North,1,9.0,13.0,42,0.00,,,0.00,3.000000,,2014-04-21 04:43:00,
2014-04-20 21:54:00,53.0,31.0,-100.00,North,1,9.0,13.0,42,0.00,,,0.00,3.000000,,2014-04-21 04:54:00,
2014-04-20 22:02:00,53.0,31.0,-100.00,North,1,9.0,13.0,42,0.00,,,0.00,3.000000,,2014-04-21 05:02:00,
2014-04-20 22:13:00,53.0,31.0,-100.00,North,1,9.0,13.0,42,0.00,,,0.00,3.000000,,2014-04-21 05:13:00,
2014-04-20 22:43:00,53.0,34.0,-100.00,North,1,10.0,14.0,48,0.00,,,0.00,2.000000,,2014-04-21 05:43:00,
2014-04-20 22:53:00,53.0,34.0,-100.00,North,1,10.0,14.0,48,0.00,,,0.00,2.000000,,2014-04-21 05:53:00,
2014-04-20 23:01:00,53.0,34.0,-100.00,North,1,10.0,14.0,48,0.00,,,0.00,2.000000,,2014-04-21 06:01:00,